3PN8 weather

Wyeth Pharmaceuticals Heliport
Collegeville, Pennsylvania, United States

Public forecast

Using degrees Fahrenheit for public forecast. Weather courtesy of forecast.io.

Closest aviation weather report (METAR) to Wyeth Pharmaceuticals Heliport

Closest report is Heritage Field, 6.5 nm (12.0 km) NW. Retrieved 2020/04/02 18:54 UTC (40 minutes ago):

KPTW 021854Z AUTO 32012G27KT 10SM SCT060 11/M02 A2975 RMK AO2 PK WND 32031/1819 SLP073 T01111022

Closest aviation forecast (TAF) to Wyeth Pharmaceuticals Heliport

Closest forecast is Philadelphia International Airport, 20.0 nm (37.1 km) SSE. Retrieved 2020/04/02 18:47 UTC (47 minutes ago):

TAF KPHL 021741Z 0218/0324 32020G30KT P6SM FEW060 FM030200 33018G28KT P6SM BKN090 FM030700 32015G25KT P6SM OVC050 FM031400 33012KT P6SM BKN030 FM031600 34018G28KT P6SM OVC050